createdAt,value
2022-08-26T00:01:57.126Z,4.38
2022-08-26T00:04:28.713Z,4.55
2022-08-26T00:06:56.827Z,4.75
2022-08-26T00:09:25.792Z,4.73
2022-08-26T00:11:54.487Z,4.05
2022-08-26T00:14:27.186Z,4.55
2022-08-26T00:17:00.196Z,4.65
2022-08-26T00:19:27.858Z,4.18
2022-08-26T00:21:55.804Z,4.30
2022-08-26T00:24:23.757Z,4.93
2022-08-26T00:26:51.793Z,5.05
2022-08-26T00:29:21.328Z,5.22
2022-08-26T00:31:50.028Z,5.13
2022-08-26T00:34:19.399Z,5.03
2022-08-26T00:36:51.797Z,5.10
2022-08-26T00:39:20.732Z,5.28
2022-08-26T00:41:48.847Z,4.70
2022-08-26T00:44:17.690Z,5.18
2022-08-26T00:46:49.432Z,4.60
2022-08-26T00:49:22.156Z,4.32
2022-08-26T00:51:55.947Z,4.28
2022-08-26T00:54:27.463Z,4.40
2022-08-26T00:57:15.839Z,3.90
2022-08-26T00:59:48.154Z,4.10
2022-08-26T01:02:21.297Z,4.70
2022-08-26T01:04:56.536Z,4.60
2022-08-26T01:07:30.022Z,4.70
2022-08-26T01:10:05.663Z,5.10
2022-08-26T01:12:38.851Z,5.60
2022-08-26T01:15:11.885Z,5.38
2022-08-26T01:17:41.379Z,5.35
2022-08-26T01:20:39.293Z,5.65
2022-08-26T01:23:10.038Z,5.43
2022-08-26T01:25:43.073Z,5.23
2022-08-26T01:28:16.433Z,5.28
2022-08-26T01:30:47.505Z,5.65
2022-08-26T01:33:20.920Z,5.40
2022-08-26T01:35:49.332Z,4.65
2022-08-26T01:38:18.583Z,5.20
2022-08-26T01:40:46.549Z,3.45
2022-08-26T01:43:19.197Z,4.10
2022-08-26T01:45:49.781Z,4.38
2022-08-26T01:48:23.515Z,4.72
2022-08-26T01:50:52.192Z,4.77
2022-08-26T01:53:22.715Z,4.68
2022-08-26T01:55:55.586Z,4.18
2022-08-26T01:58:35.197Z,4.47
2022-08-26T02:01:03.881Z,6.13
2022-08-26T02:03:33.156Z,4.47
2022-08-26T02:06:09.387Z,4.55
2022-08-26T02:08:40.071Z,4.40
2022-08-26T02:11:08.272Z,3.78
2022-08-26T02:13:41.715Z,3.92
2022-08-26T02:16:11.372Z,3.50
2022-08-26T02:18:41.686Z,3.55
2022-08-26T02:21:12.261Z,3.10
2022-08-26T02:23:40.703Z,2.80
2022-08-26T02:26:12.309Z,3.33
2022-08-26T02:28:56.000Z,3.30
2022-08-26T02:31:24.654Z,3.30
2022-08-26T02:33:52.309Z,3.08
2022-08-26T02:36:28.707Z,3.40
2022-08-26T02:38:56.547Z,3.60
2022-08-26T02:41:24.103Z,2.90
2022-08-26T02:43:52.135Z,2.83
2022-08-26T02:46:27.965Z,3.63
2022-08-26T02:48:58.949Z,3.28
2022-08-26T02:51:26.400Z,3.33
2022-08-26T02:53:54.261Z,2.77
2022-08-26T02:56:23.652Z,3.30
2022-08-26T02:58:51.161Z,3.05
2022-08-26T03:01:30.998Z,3.58
2022-08-26T03:04:00.281Z,3.72
2022-08-26T03:06:28.497Z,3.30
2022-08-26T03:08:56.134Z,3.95
2022-08-26T03:11:24.607Z,4.55
2022-08-26T03:13:52.784Z,4.60
2022-08-26T03:16:20.999Z,5.78
2022-08-26T03:18:52.086Z,5.43
2022-08-26T03:21:21.210Z,4.82
2022-08-26T03:23:48.817Z,4.80
2022-08-26T03:26:17.039Z,4.30
2022-08-26T03:29:02.757Z,3.80
2022-08-26T03:31:31.493Z,3.70
2022-08-26T03:34:00.563Z,3.72
2022-08-26T03:36:28.212Z,3.75
2022-08-26T03:38:56.988Z,3.58
2022-08-26T03:41:24.995Z,3.50
2022-08-26T03:43:56.451Z,2.83
2022-08-26T03:46:27.230Z,3.03
2022-08-26T03:48:55.097Z,3.40
2022-08-26T03:51:22.672Z,2.70
2022-08-26T03:53:51.891Z,2.80
2022-08-26T03:56:19.659Z,3.20
2022-08-26T03:58:47.168Z,3.42
2022-08-26T04:01:16.145Z,2.45
2022-08-26T04:04:00.055Z,2.95
2022-08-26T04:06:32.640Z,2.70
2022-08-26T04:09:02.714Z,3.07
2022-08-26T04:11:34.645Z,3.00
2022-08-26T04:14:06.826Z,3.17
2022-08-26T04:16:38.442Z,2.80
2022-08-26T04:19:06.881Z,2.80
2022-08-26T04:21:35.318Z,3.13
2022-08-26T04:24:03.558Z,2.85
2022-08-26T04:26:39.518Z,2.78
2022-08-26T04:29:16.180Z,3.17
2022-08-26T04:31:44.583Z,2.70
2022-08-26T04:34:14.117Z,3.00
2022-08-26T04:36:43.433Z,3.20
2022-08-26T04:39:13.121Z,3.15
2022-08-26T04:41:41.121Z,3.40
2022-08-26T04:44:08.888Z,3.05
2022-08-26T04:46:43.801Z,3.20
2022-08-26T04:49:13.366Z,3.10
2022-08-26T04:51:41.231Z,3.20
2022-08-26T04:54:12.487Z,3.03
2022-08-26T04:56:42.266Z,3.45
2022-08-26T04:59:17.051Z,3.40
2022-08-26T05:01:51.661Z,3.20
2022-08-26T05:04:21.417Z,3.40
2022-08-26T05:06:50.641Z,3.25
2022-08-26T05:09:19.878Z,3.30
2022-08-26T05:11:51.860Z,3.50
2022-08-26T05:14:21.405Z,3.10
2022-08-26T05:16:50.130Z,3.63
2022-08-26T05:19:19.213Z,3.60
2022-08-26T05:21:48.837Z,3.72
2022-08-26T05:24:17.897Z,3.80
2022-08-26T05:26:45.930Z,3.38
2022-08-26T05:29:14.345Z,3.40
2022-08-26T05:31:42.188Z,3.78
2022-08-26T05:34:10.441Z,3.80
2022-08-26T05:36:39.064Z,3.40
2022-08-26T05:39:07.598Z,3.28
2022-08-26T05:41:41.152Z,4.00
2022-08-26T05:44:11.524Z,3.50
2022-08-26T05:46:40.718Z,3.88
2022-08-26T05:49:12.482Z,4.20
2022-08-26T05:51:45.232Z,3.72
2022-08-26T05:54:14.636Z,3.72
2022-08-26T05:56:49.528Z,4.10
2022-08-26T05:59:17.062Z,3.63
2022-08-26T06:01:52.190Z,3.07
2022-08-26T06:04:51.118Z,3.53
